Time;durP1;ratioP1;P1;durP2;ratioP2;P2;SDS_P1;SDS_P2;PMS_P1;PMS_P2;Temp;Humidity;BMP_temperature;BMP_pressure;BME280_temperature;BME280_humidity;BME280_pressure;Samples;Min_cycle;Max_cycle;Signal;HPM_P1;HPM_P2
2021/06/16 00:02:24;;;;;;;16.60;13.33;;;;;;;19.00;100.00;101613.90;1775719;78;940636;-76
2021/06/16 00:04:54;;;;;;;14.80;13.27;;;;;;;19.02;100.00;101623.44;1787314;79;940779;-76
2021/06/16 00:07:24;;;;;;;16.93;14.33;;;;;;;19.03;100.00;101611.86;1775496;78;941047;-74
2021/06/16 00:09:54;;;;;;;13.23;11.73;;;;;;;19.08;100.00;101608.88;1787279;79;940806;-76
2021/06/16 00:12:26;;;;;;;13.63;12.27;;;;;;;19.10;100.00;101606.58;1775681;78;941129;-75
2021/06/16 00:14:56;;;;;;;14.00;12.60;;;;;;;19.13;100.00;101609.89;1787354;78;939165;-74
2021/06/16 00:17:26;;;;;;;13.47;12.17;;;;;;;19.18;100.00;101598.48;1775535;79;940875;-74
2021/06/16 00:19:56;;;;;;;16.37;14.77;;;;;;;19.10;100.00;101607.16;1787273;79;938899;-74
2021/06/16 00:22:26;;;;;;;14.70;12.93;;;;;;;18.93;100.00;101607.91;1775552;79;940799;-74
2021/06/16 00:24:57;;;;;;;14.10;12.63;;;;;;;18.76;100.00;101606.40;1787196;79;937685;-74
2021/06/16 00:27:27;;;;;;;15.15;12.98;;;;;;;18.69;100.00;101593.95;1775483;79;939951;-75
2021/06/16 00:29:57;;;;;;;13.80;12.40;;;;;;;18.60;100.00;101608.80;1787237;79;938849;-75
2021/06/16 00:32:27;;;;;;;15.70;13.63;;;;;;;18.57;100.00;101605.19;1775604;79;939828;-76
2021/06/16 00:34:57;;;;;;;17.53;15.60;;;;;;;18.51;100.00;101607.03;1787186;79;938872;-76
2021/06/16 00:37:27;;;;;;;15.80;14.20;;;;;;;18.48;100.00;101610.50;1775381;79;940077;-76
2021/06/16 00:39:58;;;;;;;15.53;13.90;;;;;;;18.57;100.00;101609.98;1787231;79;938885;-76
2021/06/16 00:42:29;;;;;;;15.63;14.03;;;;;;;18.58;100.00;101607.44;1775515;79;940915;-75
2021/06/16 00:47:55;;;;;;;16.03;14.40;;;;;;;18.70;100.00;101600.64;1752300;80;85502;-73
2021/06/16 00:53:20;;;;;;;15.20;13.60;;;;;;;18.61;100.00;101589.33;1945339;73;39603;-74
2021/06/16 00:58:45;;;;;;;15.70;14.17;;;;;;;18.58;100.00;101584.92;1867448;75;86903;-74
2021/06/16 01:01:19;;;;;;;16.02;14.35;;;;;;;18.65;100.00;101592.35;1831007;74;938872;-76
2021/06/16 01:06:50;;;;;;;15.17;13.60;;;;;;;18.60;100.00;101563.77;1882676;75;86216;-74
2021/06/16 01:15:09;;;;;;;15.60;13.73;;;;;;;18.81;100.00;101560.39;2005790;69;39594;-75
2021/06/16 01:17:43;;;;;;;15.53;14.03;;;;;;;18.87;100.00;101565.55;1854034;75;938884;-74
2021/06/16 01:20:32;;;;;;;15.27;13.67;;;;;;;18.63;100.00;101578.59;1854513;75;940827;-74
2021/06/16 01:23:15;;;;;;;21.00;18.83;;;;;;;18.49;100.00;101571.34;1861089;75;938940;-75
2021/06/16 01:25:51;;;;;;;20.37;18.13;;;;;;;18.58;100.00;101567.47;1849019;76;940878;-75
2021/06/16 01:28:25;;;;;;;16.45;14.60;;;;;;;18.82;100.00;101557.27;1858459;75;940916;-74
2021/06/16 01:30:58;;;;;;;12.47;11.07;;;;;;;18.85;100.00;101552.96;1852149;75;938876;-74
2021/06/16 01:33:28;;;;;;;14.03;12.47;;;;;;;18.65;100.00;101547.33;1879709;74;940744;-75
2021/06/16 01:35:59;;;;;;;15.17;13.53;;;;;;;18.62;100.00;101545.97;1834335;76;938990;-75
2021/06/16 01:38:30;;;;;;;18.67;15.33;;;;;;;18.68;100.00;101549.48;1825712;76;940931;-74
2021/06/16 01:41:02;;;;;;;17.83;13.97;;;;;;;18.58;100.00;101542.72;1855622;76;938890;-75
2021/06/16 01:43:33;;;;;;;16.17;14.43;;;;;;;18.53;100.00;101545.09;1843245;76;940752;-74
2021/06/16 01:48:59;;;;;;;13.93;12.53;;;;;;;18.53;100.00;101525.39;1898902;75;86723;-74
2021/06/16 01:54:44;;;;;;;15.33;12.77;;;;;;;18.29;100.00;101531.08;1920786;73;86187;-73
2021/06/16 02:00:12;;;;;;;13.97;12.57;;;;;;;18.12;100.00;101521.95;1904352;73;39566;-74
2021/06/16 02:05:39;;;;;;;20.27;18.27;;;;;;;18.00;100.00;101509.88;1876973;75;86540;-75
2021/06/16 02:11:07;;;;;;;20.50;18.50;;;;;;;17.91;100.00;101503.36;1948388;73;39634;-75
2021/06/16 02:16:38;;;;;;;21.60;19.40;;;;;;;17.73;100.00;101500.14;1942597;73;39542;-74
2021/06/16 02:22:09;;;;;;;19.90;17.87;;;;;;;17.91;100.00;101501.95;1938922;72;39532;-77
2021/06/16 02:27:32;;;;;;;18.93;17.03;;;;;;;17.84;100.00;101486.09;1909148;73;40285;-74
2021/06/16 02:32:57;;;;;;;20.37;18.43;;;;;;;17.98;100.00;101484.05;1877373;75;86743;-75
2021/06/16 02:38:26;;;;;;;20.00;18.03;;;;;;;17.94;100.00;101473.77;1916192;73;39795;-76
2021/06/16 02:43:52;;;;;;;18.47;16.67;;;;;;;18.04;100.00;101460.87;1824981;76;86817;-75
2021/06/16 02:49:18;;;;;;;16.60;14.47;;;;;;;17.79;100.00;101450.27;1935404;73;39619;-74
2021/06/16 02:54:44;;;;;;;16.20;14.53;;;;;;;17.63;100.00;101454.84;1878037;75;86585;-73
2021/06/16 03:00:13;;;;;;;18.43;16.67;;;;;;;17.65;100.00;101441.90;1947053;73;39548;-75
2021/06/16 03:05:42;;;;;;;19.73;17.73;;;;;;;17.27;100.00;101433.78;1877385;75;86291;-76
2021/06/16 03:11:07;;;;;;;19.87;17.73;;;;;;;17.26;100.00;101434.09;1948598;73;39562;-76
2021/06/16 03:16:34;;;;;;;19.77;17.77;;;;;;;17.22;100.00;101440.91;1943084;73;39914;-74
2021/06/16 03:22:01;;;;;;;19.57;15.40;;;;;;;17.30;100.00;101424.72;1838322;77;86066;-76
2021/06/16 03:27:28;;;;;;;18.20;16.33;;;;;;;17.12;100.00;101416.43;1939716;73;39963;-75
2021/06/16 03:32:56;;;;;;;19.40;17.30;;;;;;;16.99;100.00;101422.33;1947539;71;86478;-75
2021/06/16 03:38:21;;;;;;;17.00;15.30;;;;;;;17.03;100.00;101418.35;1945472;73;39666;-72
2021/06/16 03:43:48;;;;;;;18.27;16.37;;;;;;;17.12;100.00;101408.84;1869243;77;86429;-75
2021/06/16 03:49:13;;;;;;;22.20;19.80;;;;;;;16.96;100.00;101403.89;1947135;73;39589;-75
2021/06/16 03:54:41;;;;;;;22.43;20.13;;;;;;;16.96;100.00;101401.92;1876938;75;86179;-74
2021/06/16 04:00:09;;;;;;;16.47;14.77;;;;;;;17.05;100.00;101395.83;1924452;73;39593;-74
2021/06/16 04:05:34;;;;;;;21.63;19.33;;;;;;;16.96;100.00;101385.08;1914296;72;39678;-75
2021/06/16 04:11:00;;;;;;;20.97;18.77;;;;;;;16.98;100.00;101378.59;1869338;77;86489;-76
2021/06/16 04:16:26;;;;;;;17.67;15.87;;;;;;;16.79;100.00;101375.92;1944653;73;39636;-74
2021/06/16 04:21:51;;;;;;;15.87;13.90;;;;;;;16.70;100.00;101366.58;1776621;78;86155;-76
2021/06/16 04:27:15;;;;;;;16.50;14.50;;;;;;;16.45;100.00;101350.83;1946410;73;39573;-76
2021/06/16 04:32:38;;;;;;;12.40;10.70;;;;;;;16.35;100.00;101356.91;1877436;75;86153;-76
2021/06/16 04:38:06;;;;;;;14.07;10.30;;;;;;;16.28;100.00;101351.46;1948576;73;39487;-74
2021/06/16 04:43:31;;;;;;;13.10;11.70;;;;;;;16.46;100.00;101346.89;1912141;73;39642;-74
2021/06/16 04:48:54;;;;;;;13.60;11.77;;;;;;;16.70;100.00;101351.72;1851199;75;86006;-74
2021/06/16 04:54:18;;;;;;;17.30;15.60;;;;;;;16.99;100.00;101350.77;1916937;73;39620;-76
2021/06/16 04:59:43;;;;;;;24.03;20.67;;;;;;;17.26;100.00;101354.06;1882976;75;85471;-76
2021/06/16 05:05:10;;;;;;;18.77;16.97;;;;;;;17.45;100.00;101349.11;1928424;73;39894;-73
2021/06/16 05:10:35;;;;;;;21.63;17.50;;;;;;;17.53;100.00;101340.48;1845820;77;85732;-75
2021/06/16 05:15:59;;;;;;;17.47;15.67;;;;;;;17.54;100.00;101339.34;1947596;71;86596;-74
2021/06/16 05:21:24;;;;;;;17.33;15.63;;;;;;;17.57;100.00;101324.06;1917975;73;39631;-76
2021/06/16 05:26:48;;;;;;;15.30;13.67;;;;;;;17.56;100.00;101321.56;1869260;76;86826;-76
2021/06/16 05:32:12;;;;;;;14.07;12.33;;;;;;;17.64;100.00;101317.44;1936351;72;40313;-74
2021/06/16 05:37:37;;;;;;;18.37;12.60;;;;;;;17.59;100.00;101318.14;1877177;75;86210;-74
2021/06/16 05:43:04;;;;;;;13.80;11.40;;;;;;;17.78;100.00;101318.77;1939487;72;39692;-76
2021/06/16 05:48:27;;;;;;;11.97;10.80;;;;;;;17.82;100.00;101318.95;1912411;73;39422;-76
2021/06/16 05:53:51;;;;;;;12.00;10.80;;;;;;;17.95;100.00;101303.39;1861021;76;86991;-75
2021/06/16 05:59:15;;;;;;;12.27;8.97;;;;;;;17.91;100.00;101302.95;1946461;73;39696;-73
2021/06/16 06:04:39;;;;;;;14.07;9.00;;;;;;;17.99;100.00;101286.13;1877239;75;85615;-75
2021/06/16 06:10:08;;;;;;;10.63;9.60;;;;;;;18.09;100.00;101283.04;1949151;73;39599;-73
2021/06/16 06:15:33;;;;;;;9.27;8.43;;;;;;;18.25;100.00;101282.01;1943211;73;39612;-73
2021/06/16 06:20:58;;;;;;;8.40;7.23;;;;;;;18.20;100.00;101277.94;1859060;75;86664;-75
2021/06/16 06:26:24;;;;;;;9.93;7.83;;;;;;;18.33;100.00;101276.15;1945257;73;39514;-72
2021/06/16 06:31:49;;;;;;;8.27;7.43;;;;;;;18.45;100.00;101279.15;1837623;77;86681;-72
2021/06/16 06:37:14;;;;;;;9.80;7.83;;;;;;;18.65;100.00;101280.78;1919769;73;39609;-78
2021/06/16 06:42:38;;;;;;;9.37;7.80;;;;;;;18.76;100.00;101278.50;1882137;75;86721;-75
2021/06/16 06:48:03;;;;;;;9.63;8.63;;;;;;;18.78;100.00;101281.83;1926064;73;39575;-75
2021/06/16 06:53:29;;;;;;;11.50;9.53;;;;;;;18.90;100.00;101281.16;1913792;73;39623;-75
2021/06/16 06:58:53;;;;;;;10.60;9.50;;;;;;;18.89;100.00;101264.02;1943596;71;86643;-71
2021/06/16 07:04:18;;;;;;;12.43;9.53;;;;;;;19.01;100.00;101262.77;1921341;72;39507;-76
2021/06/16 07:10:01;;;;;;;13.63;10.63;;;;;;;19.04;100.00;101273.35;1898907;73;86417;-77
2021/06/16 07:15:25;;;;;;;12.10;10.77;;;;;;;19.21;100.00;101270.52;1914803;73;39743;-72
2021/06/16 07:20:52;;;;;;;13.13;11.73;;;;;;;19.42;100.00;101272.92;1867440;75;86563;-75
2021/06/16 07:26:19;;;;;;;12.57;10.97;;;;;;;19.55;100.00;101264.05;1933745;72;39562;-76
2021/06/16 07:31:43;;;;;;;12.63;11.27;;;;;;;19.77;100.00;101260.14;1837539;77;86069;-73
2021/06/16 07:37:10;;;;;;;13.17;10.90;;;;;;;20.17;100.00;101262.88;1947640;73;39728;-78
2021/06/16 07:42:35;;;;;;;10.47;9.37;;;;;;;20.60;100.00;101249.95;1877112;75;86192;-76
2021/06/16 07:48:00;;;;;;;11.53;8.97;;;;;;;21.03;100.00;101253.00;1838721;77;86387;-74
2021/06/16 07:53:24;;;;;;;9.87;8.97;;;;;;;21.56;100.00;101256.42;1949315;73;39542;-73
2021/06/16 07:58:47;;;;;;;11.20;7.67;;;;;;;21.96;100.00;101249.55;1869433;76;85848;-76
2021/06/16 08:04:13;;;;;;;7.00;6.30;;;;;;;22.03;100.00;101237.91;1936465;72;39505;-76
2021/06/16 08:09:37;;;;;;;7.87;5.80;;;;;;;22.53;100.00;101233.84;1877195;75;86118;-73
2021/06/16 08:15:03;;;;;;;5.77;5.10;;;;;;;22.79;100.00;101241.38;1922625;73;40392;-73
2021/06/16 08:20:28;;;;;;;6.63;4.17;;;;;;;23.05;100.00;101241.76;1944198;73;39410;-72
2021/06/16 08:25:52;;;;;;;5.60;4.50;;;;;;;23.47;100.00;101232.84;1782913;79;86552;-74
2021/06/16 08:31:16;;;;;;;5.53;3.80;;;;;;;23.82;100.00;101225.88;1946168;73;39608;-77
2021/06/16 08:36:45;;;;;;;5.03;3.62;;;;;;;24.02;100.00;101231.86;1882396;75;85410;-77
2021/06/16 08:42:12;;;;;;;4.15;3.75;;;;;;;24.46;100.00;101228.31;1936708;72;39588;-73
2021/06/16 08:47:38;;;;;;;5.33;4.17;;;;;;;24.49;100.00;101224.13;1892128;74;86203;-72
2021/06/16 08:53:05;;;;;;;5.22;3.77;;;;;;;24.36;100.00;101234.55;1939164;72;39488;-74
2021/06/16 08:58:30;;;;;;;4.30;3.90;;;;;;;24.75;100.00;101225.51;1932022;72;39558;-74
2021/06/16 09:03:54;;;;;;;3.87;3.58;;;;;;;24.71;100.00;101221.77;1777386;79;86698;-74
2021/06/16 09:12:15;;;;;;;6.05;3.37;;;;;;;24.87;100.00;101201.23;1958777;70;39545;-74
2021/06/16 09:15:02;;;;;;;4.58;3.15;;;;;;;24.62;100.00;101213.45;1880683;74;933592;-73
2021/06/16 09:17:32;;;;;;;5.08;2.75;;;;;;;24.46;100.00;101202.75;1868253;75;936719;-74
2021/06/16 09:20:01;;;;;;;4.42;3.00;;;;;;;24.41;100.00;101190.25;1880688;74;934793;-76
2021/06/16 09:22:34;;;;;;;4.10;2.50;;;;;;;24.27;100.00;101190.73;1868432;75;936740;-74
2021/06/16 09:25:07;;;;;;;2.40;2.20;;;;;;;24.21;100.00;101189.39;1880727;74;934926;-76
2021/06/16 09:27:43;;;;;;;3.65;2.30;;;;;;;24.56;100.00;101185.10;1880637;74;936571;-76
2021/06/16 09:30:45;;;;;;;2.22;2.00;;;;;;;24.49;100.00;101178.68;1868318;75;946307;-75
2021/06/16 09:33:17;;;;;;;4.35;2.02;;;;;;;24.29;100.00;101177.01;1868287;74;936630;-73
2021/06/16 09:35:49;;;;;;;3.80;2.35;;;;;;;24.45;100.00;101170.68;1880738;75;936490;-74
2021/06/16 09:38:30;;;;;;;2.10;2.00;;;;;;;24.30;100.00;101174.38;1868428;74;935278;-73
2021/06/16 09:41:01;;;;;;;2.58;2.30;;;;;;;24.24;100.00;101173.63;1880694;74;934732;-73
2021/06/16 09:43:32;;;;;;;2.85;1.90;;;;;;;24.33;100.00;101169.39;1868341;74;936523;-76
2021/06/16 09:48:57;;;;;;;3.05;2.08;;;;;;;24.37;100.00;101160.95;1838428;77;86469;-76
2021/06/16 09:54:22;;;;;;;3.67;2.30;;;;;;;24.37;100.00;101140.48;1895479;73;39582;-73
2021/06/16 09:59:50;;;;;;;3.02;2.08;;;;;;;24.57;100.00;101141.31;1878854;75;86848;-75
2021/06/16 10:05:16;;;;;;;2.75;2.00;;;;;;;24.63;100.00;101154.03;1946407;73;39904;-75
2021/06/16 10:10:40;;;;;;;3.60;2.27;;;;;;;24.58;100.00;101149.23;1877022;75;86260;-80
2021/06/16 10:16:06;;;;;;;5.97;2.70;;;;;;;24.68;100.00;101138.70;1929620;73;39583;-72
2021/06/16 10:21:31;;;;;;;5.05;2.60;;;;;;;24.71;100.00;101143.63;1925560;72;39584;-74
2021/06/16 10:26:57;;;;;;;5.28;2.60;;;;;;;25.08;100.00;101135.47;1947142;71;86375;-71
2021/06/16 10:29:32;;;;;;;6.03;2.60;;;;;;;24.97;100.00;101138.12;1881886;72;934481;-73
2021/06/16 10:35:01;;;;;;;2.40;2.20;;;;;;;25.04;100.00;101130.31;1838542;77;86250;-76
2021/06/16 10:40:33;;;;;;;3.50;2.27;;;;;;;25.30;100.00;101126.14;1943715;73;39771;-71
2021/06/16 10:46:16;;;;;;;5.72;2.65;;;;;;;24.97;100.00;101127.34;1951428;73;39667;-71
2021/06/16 10:51:49;;;;;;;3.45;2.60;;;;;;;25.07;100.00;101123.90;1832328;78;86922;-72
2021/06/16 10:57:18;;;;;;;4.05;2.65;;;;;;;25.17;100.00;101128.94;1945808;73;39661;-75
2021/06/16 11:03:04;;;;;;;3.02;2.72;;;;;;;25.05;100.00;101120.00;1929669;73;39586;-75
2021/06/16 11:08:49;;;;;;;3.02;2.47;;;;;;;25.43;100.00;101108.29;1877018;75;86447;-70
2021/06/16 11:14:34;;;;;;;2.83;2.50;;;;;;;25.19;100.00;101103.81;1923850;72;39569;-71
2021/06/16 11:20:00;;;;;;;3.25;2.90;;;;;;;25.15;100.00;101092.98;1785000;79;86693;-70
2021/06/16 11:25:38;;;;;;;3.00;2.58;;;;;;;25.33;100.00;101070.75;1889196;73;40112;-71
2021/06/16 11:31:13;;;;;;;3.85;2.90;;;;;;;25.23;100.00;101079.11;1946822;73;39577;-74
2021/06/16 11:36:45;;;;;;;3.15;2.80;;;;;;;25.43;100.00;101086.95;1836650;77;86845;-73
2021/06/16 11:42:17;;;;;;;3.00;2.50;;;;;;;25.42;100.00;101083.88;1917790;73;39839;-75
2021/06/16 11:47:42;;;;;;;4.03;3.62;;;;;;;25.48;100.00;101076.09;1877031;75;86501;-72
2021/06/16 11:53:08;;;;;;;2.80;2.60;;;;;;;25.64;100.00;101067.43;1938603;72;39831;-76
2021/06/16 11:58:41;;;;;;;3.22;2.92;;;;;;;25.45;100.00;101067.50;1876920;75;86509;-72
2021/06/16 12:04:14;;;;;;;3.60;3.30;;;;;;;25.72;100.00;101059.22;1920101;73;39530;-72
2021/06/16 12:09:46;;;;;;;4.22;3.90;;;;;;;25.93;100.00;101055.90;1892181;74;86176;-73
2021/06/16 12:15:16;;;;;;;3.10;2.80;;;;;;;25.87;100.00;101057.42;1920606;73;39693;-72
2021/06/16 12:20:53;;;;;;;5.08;3.52;;;;;;;26.06;100.00;101049.56;1837694;77;86500;-71
2021/06/16 12:26:21;;;;;;;3.37;2.95;;;;;;;26.11;100.00;101049.83;1919837;72;39504;-71
2021/06/16 12:31:50;;;;;;;4.22;3.62;;;;;;;26.02;100.00;101044.42;1878225;75;86756;-73
2021/06/16 12:37:17;;;;;;;11.38;3.87;;;;;;;26.06;100.00;101041.02;1946678;73;39570;-72
2021/06/16 12:43:12;;;;;;;7.65;3.87;;;;;;;26.32;100.00;101030.80;1904059;73;39579;-72
2021/06/16 12:48:35;;;;;;;5.85;3.72;;;;;;;26.11;100.00;101022.78;1877476;75;86608;-73
2021/06/16 12:54:00;;;;;;;4.62;3.70;;;;;;;25.99;100.00;101018.76;1946339;71;86760;-71
2021/06/16 12:59:34;;;;;;;11.68;5.65;;;;;;;25.97;100.00;101012.64;1915187;73;39717;-70
2021/06/16 13:05:01;;;;;;;5.87;4.10;;;;;;;26.17;100.00;101014.95;1761819;80;86677;-72
2021/06/16 13:10:41;;;;;;;13.62;5.37;;;;;;;26.28;100.00;101005.95;1881991;75;86635;-75
2021/06/16 13:16:10;;;;;;;16.40;5.78;;;;;;;26.47;100.00;100999.87;1948522;73;39568;-75
2021/06/16 13:21:35;;;;;;;8.85;4.37;;;;;;;26.24;100.00;100996.55;1924169;72;39967;-75
2021/06/16 13:27:04;;;;;;;4.72;3.98;;;;;;;26.18;100.00;100995.84;1869296;77;86679;-72
2021/06/16 13:32:41;;;;;;;6.70;4.75;;;;;;;26.45;100.00;100983.77;1910587;73;39901;-71
2021/06/16 13:38:08;;;;;;;7.17;4.30;;;;;;;26.31;100.00;100984.44;1948290;73;39766;-70
2021/06/16 13:43:33;;;;;;;6.28;4.40;;;;;;;26.26;100.00;100972.78;1943003;73;39688;-70
2021/06/16 13:48:56;;;;;;;4.22;3.83;;;;;;;26.20;100.00;100981.45;1838034;77;86917;-70
2021/06/16 13:54:21;;;;;;;4.12;3.72;;;;;;;26.23;100.00;100972.72;1945501;73;39703;-70
2021/06/16 13:59:46;;;;;;;4.53;4.10;;;;;;;26.26;100.00;100971.36;1829356;78;86184;-70
2021/06/16 14:05:13;;;;;;;4.00;3.65;;;;;;;26.45;100.00;100962.39;1921263;73;39786;-70
2021/06/16 14:13:25;;;;;;;3.67;3.22;;;;;;;26.40;100.00;100942.20;1951265;71;39591;-70
2021/06/16 14:15:55;;;;;;;5.60;3.85;;;;;;;26.65;100.00;100950.42;1880641;75;934444;-70
2021/06/16 14:18:25;;;;;;;4.55;3.45;;;;;;;26.63;100.00;100942.03;1868474;75;936670;-70
2021/06/16 14:20:56;;;;;;;4.25;3.80;;;;;;;26.44;100.00;100945.11;1880802;75;936646;-70
2021/06/16 14:23:27;;;;;;;4.47;3.60;;;;;;;26.25;100.00;100948.95;1868558;75;936739;-70
2021/06/16 14:25:58;;;;;;;3.77;3.47;;;;;;;26.38;100.00;100938.94;1880715;75;934754;-70
2021/06/16 14:28:28;;;;;;;3.70;3.37;;;;;;;26.55;100.00;100934.03;1868373;75;936894;-70
2021/06/16 14:30:58;;;;;;;3.92;2.80;;;;;;;26.44;100.00;100933.11;1880711;75;934695;-70
2021/06/16 14:33:28;;;;;;;3.30;3.00;;;;;;;26.48;100.00;100926.02;1868512;75;936634;-70
2021/06/16 14:36:00;;;;;;;5.15;2.58;;;;;;;26.39;100.00;100926.94;1880703;75;935035;-70
2021/06/16 14:38:30;;;;;;;3.40;3.10;;;;;;;26.48;100.00;100927.45;1868372;74;936586;-70
2021/06/16 14:41:00;;;;;;;3.10;2.80;;;;;;;26.57;100.00;100928.73;1880657;74;934731;-70
2021/06/16 14:43:30;;;;;;;2.80;2.50;;;;;;;26.49;100.00;100926.21;1868467;74;936662;-70
2021/06/16 14:48:54;;;;;;;2.90;2.62;;;;;;;26.56;100.00;100914.31;1861990;75;86334;-69
2021/06/16 14:54:19;;;;;;;3.10;2.80;;;;;;;26.52;100.00;100907.75;1945701;73;39579;-72
2021/06/16 14:59:43;;;;;;;3.25;2.83;;;;;;;26.51;100.00;100908.95;1869410;76;86282;-70
2021/06/16 15:05:10;;;;;;;3.50;2.92;;;;;;;26.83;100.00;100909.87;1948441;73;39455;-75
2021/06/16 15:10:34;;;;;;;3.92;3.00;;;;;;;26.79;100.00;100896.98;1930739;73;39839;-72
2021/06/16 15:15:58;;;;;;;3.15;2.80;;;;;;;26.73;100.00;100891.45;1842410;76;86365;-72
2021/06/16 15:21:23;;;;;;;3.12;2.90;;;;;;;26.50;100.00;100881.67;1897904;73;40267;-72
2021/06/16 15:26:52;;;;;;;3.20;2.35;;;;;;;26.78;100.00;100879.70;1867652;75;86156;-72
2021/06/16 15:32:16;;;;;;;2.90;2.70;;;;;;;26.85;100.00;100883.23;1918098;73;39795;-71
2021/06/16 15:37:41;;;;;;;3.75;3.20;;;;;;;26.94;100.00;100884.53;1877849;75;86261;-70
2021/06/16 15:43:07;;;;;;;6.22;3.10;;;;;;;27.07;100.00;100877.30;1924019;73;39616;-73
2021/06/16 15:48:30;;;;;;;4.80;2.77;;;;;;;26.85;100.00;100881.20;1926076;73;39614;-73
2021/06/16 15:53:55;;;;;;;3.87;3.27;;;;;;;26.44;100.00;100871.86;1764096;79;86630;-71
2021/06/16 15:59:19;;;;;;;4.08;2.45;;;;;;;26.67;100.00;100865.34;1945701;73;39817;-71
2021/06/16 16:04:43;;;;;;;2.98;2.75;;;;;;;26.97;100.00;100862.35;1837165;77;86213;-73
2021/06/16 16:10:10;;;;;;;2.47;2.27;;;;;;;26.93;100.00;100858.66;1948534;73;39491;-72
2021/06/16 16:15:36;;;;;;;4.17;3.00;;;;;;;27.13;100.00;100850.63;1877195;75;86075;-72
2021/06/16 16:21:00;;;;;;;3.25;2.95;;;;;;;26.96;100.00;100847.88;1838564;77;86135;-72
2021/06/16 16:26:25;;;;;;;2.90;2.60;;;;;;;26.89;100.00;100847.02;1913623;73;39521;-72
2021/06/16 16:31:50;;;;;;;3.85;3.00;;;;;;;26.92;100.00;100847.03;1832622;78;86916;-74
2021/06/16 16:37:17;;;;;;;2.60;2.40;;;;;;;26.90;100.00;100838.08;1946605;73;40462;-71
2021/06/16 16:42:41;;;;;;;6.22;3.00;;;;;;;26.73;100.00;100825.91;1877176;75;86628;-71
2021/06/16 16:48:07;;;;;;;3.27;2.98;;;;;;;27.06;100.00;100823.51;1948967;73;39888;-73
2021/06/16 16:53:32;;;;;;;2.90;2.70;;;;;;;26.92;100.00;100823.41;1943249;73;39755;-73
2021/06/16 16:58:56;;;;;;;2.85;2.60;;;;;;;26.98;100.00;100818.38;1838100;77;86577;-72
2021/06/16 17:04:20;;;;;;;4.97;3.10;;;;;;;27.06;100.00;100820.05;1897416;73;49200;-71
2021/06/16 17:09:44;;;;;;;3.12;2.83;;;;;;;27.00;100.00;100813.08;1837418;77;86574;-75
2021/06/16 17:15:13;;;;;;;3.20;2.90;;;;;;;26.77;100.00;100819.63;1948501;73;39440;-70
2021/06/16 17:20:37;;;;;;;3.40;3.10;;;;;;;26.83;100.00;100814.38;1877197;75;85536;-73
2021/06/16 17:26:02;;;;;;;3.50;3.20;;;;;;;26.95;100.00;100809.20;1838854;77;86458;-70
2021/06/16 17:31:26;;;;;;;3.67;2.72;;;;;;;26.95;100.00;100804.92;1912926;73;39527;-73
2021/06/16 17:36:50;;;;;;;4.37;3.35;;;;;;;26.83;100.00;100801.55;1838013;77;86081;-75
2021/06/16 17:42:15;;;;;;;3.50;2.98;;;;;;;26.89;100.00;100797.95;1946702;73;39764;-75
2021/06/16 17:47:41;;;;;;;4.40;3.35;;;;;;;26.88;100.00;100797.73;1880901;75;86177;-71
2021/06/16 17:53:09;;;;;;;4.05;2.95;;;;;;;26.91;100.00;100792.69;1938471;72;39718;-75
2021/06/16 17:58:45;;;;;;;3.33;3.12;;;;;;;26.78;100.00;100794.19;1883902;74;86535;-70
2021/06/16 18:04:10;;;;;;;3.08;2.83;;;;;;;26.83;100.00;100790.94;1947647;73;39437;-74
2021/06/16 18:09:36;;;;;;;3.42;3.10;;;;;;;26.73;100.00;100781.73;1898786;73;76941;-71
2021/06/16 18:15:03;;;;;;;3.92;3.45;;;;;;;26.85;100.00;100782.86;1882060;75;86486;-71
2021/06/16 18:20:28;;;;;;;3.42;3.05;;;;;;;26.87;100.00;100780.41;1944404;73;39790;-71
2021/06/16 18:25:55;;;;;;;4.97;3.40;;;;;;;26.77;100.00;100775.45;1781055;79;86493;-74
2021/06/16 18:31:19;;;;;;;3.15;2.72;;;;;;;26.76;100.00;100779.50;1945667;73;39562;-74
2021/06/16 18:36:44;;;;;;;3.55;3.25;;;;;;;26.60;100.00;100778.38;1945567;73;39627;-71
2021/06/16 18:42:09;;;;;;;3.33;2.98;;;;;;;26.53;100.00;100784.01;1878746;75;86369;-71
2021/06/16 18:47:35;;;;;;;3.58;2.90;;;;;;;26.44;100.00;100776.44;1910610;74;39594;-75
2021/06/16 18:52:59;;;;;;;4.20;3.17;;;;;;;26.40;100.00;100782.68;1825387;78;85598;-71
2021/06/16 18:58:25;;;;;;;4.40;3.90;;;;;;;26.39;100.00;100786.77;1919742;73;39730;-75
2021/06/16 19:03:52;;;;;;;4.75;3.40;;;;;;;26.35;100.00;100800.77;1877673;75;86426;-75
2021/06/16 19:09:16;;;;;;;4.60;4.17;;;;;;;26.33;100.00;100803.99;1947858;73;39501;-72
2021/06/16 19:14:41;;;;;;;6.28;4.72;;;;;;;26.18;100.00;100812.17;1910909;73;39549;-71
2021/06/16 19:20:14;;;;;;;5.58;4.95;;;;;;;26.20;100.00;100830.52;1940661;71;86452;-71
2021/06/16 19:28:26;;;;;;;5.08;4.08;;;;;;;25.95;100.00;100850.77;1963033;71;39563;-71
2021/06/16 19:30:57;;;;;;;4.47;4.08;;;;;;;25.81;100.00;100862.80;1854400;76;934566;-74
2021/06/16 19:33:28;;;;;;;5.30;4.25;;;;;;;25.78;100.00;100866.43;1857865;75;936782;-74
2021/06/16 19:36:00;;;;;;;5.10;4.60;;;;;;;25.68;100.00;100865.69;1840118;76;936824;-70
2021/06/16 19:38:30;;;;;;;4.73;4.33;;;;;;;25.66;100.00;100872.98;1850846;74;939813;-71
2021/06/16 19:41:00;;;;;;;5.67;4.70;;;;;;;25.56;100.00;100875.89;1865400;76;936639;-75
2021/06/16 19:43:30;;;;;;;8.73;5.10;;;;;;;25.45;100.00;100884.87;1820512;76;936905;-75
2021/06/16 19:48:55;;;;;;;5.58;5.03;;;;;;;25.27;100.00;100892.32;1837733;77;86332;-74
2021/06/16 19:54:19;;;;;;;6.28;5.67;;;;;;;25.08;100.00;100900.35;1924682;73;39455;-74
2021/06/16 19:59:45;;;;;;;8.23;7.03;;;;;;;24.89;100.00;100911.83;1877211;75;86229;-75
2021/06/16 20:05:11;;;;;;;7.15;6.40;;;;;;;24.79;100.00;100919.53;1939842;72;39730;-70
2021/06/16 20:10:36;;;;;;;6.87;6.25;;;;;;;24.61;100.00;100919.81;1944170;73;39622;-79
2021/06/16 20:16:02;;;;;;;6.87;6.28;;;;;;;24.18;100.00;100944.56;1947418;71;86096;-75
2021/06/16 20:21:27;;;;;;;8.70;6.50;;;;;;;24.03;100.00;100948.30;1945571;73;39705;-79
2021/06/16 20:26:52;;;;;;;10.40;9.40;;;;;;;23.85;100.00;100969.20;1837338;77;86300;-76
2021/06/16 20:32:17;;;;;;;7.10;5.67;;;;;;;23.76;100.00;100994.11;1947648;73;39516;-76
2021/06/16 20:37:41;;;;;;;10.30;9.25;;;;;;;23.58;100.00;101000.80;1845949;78;86447;-70
2021/06/16 20:43:09;;;;;;;12.23;10.95;;;;;;;23.22;100.00;101009.61;1838692;77;86632;-79
2021/06/16 20:48:33;;;;;;;11.95;10.72;;;;;;;23.13;100.00;101005.55;1944629;73;39638;-75
2021/06/16 20:53:58;;;;;;;12.47;11.22;;;;;;;22.89;100.00;101004.92;1752255;80;85535;-79
2021/06/16 20:59:23;;;;;;;12.93;10.20;;;;;;;22.85;100.00;101005.42;1923718;72;39460;-77
2021/06/16 21:04:48;;;;;;;11.67;10.47;;;;;;;22.37;100.00;101000.23;1882553;75;85323;-71
2021/06/16 21:10:14;;;;;;;11.90;10.58;;;;;;;22.29;100.00;100977.16;1948620;73;39466;-79
2021/06/16 21:15:44;;;;;;;12.20;10.53;;;;;;;21.99;100.00;100956.88;1943545;73;40370;-70
2021/06/16 21:21:05;;;;;;;23.47;13.62;;;;;;;21.77;100.00;100946.94;1863642;76;86288;-75
2021/06/16 21:26:30;;;;;;;13.13;11.83;;;;;;;21.78;100.00;100953.38;1914377;73;40315;-79
2021/06/16 21:31:54;;;;;;;12.85;11.55;;;;;;;21.98;100.00;100953.84;1867697;75;86482;-77
2021/06/16 21:37:19;;;;;;;13.90;12.40;;;;;;;21.87;100.00;100953.23;1936622;72;39511;-75
2021/06/16 21:42:44;;;;;;;13.77;12.40;;;;;;;21.91;100.00;100973.96;1877289;75;85541;-71
2021/06/16 21:48:09;;;;;;;15.90;13.47;;;;;;;21.97;100.00;100959.25;1838610;77;86867;-75
2021/06/16 21:53:34;;;;;;;14.43;13.03;;;;;;;21.66;100.00;100965.56;1928134;72;39677;-70
2021/06/16 21:58:59;;;;;;;15.00;13.40;;;;;;;21.72;100.00;100961.31;1782983;80;86331;-74
2021/06/16 22:04:25;;;;;;;14.10;12.65;;;;;;;21.70;100.00;100960.01;1935742;72;39402;-70